Main page
METAR-TAF:

METAR-TAF

Airports :

Ashgabat International Airport

Ashgabat, Turkmenistan

latitude: 37-59N, longitude: 058-22E, elevation: 211 m

Current weather observation

The report was made 1 hour and 7 minutes ago, at 16:00 UTC
Wind 4 kt from the South, varying between East/Southeast and Southwest
Temperature 14°C
Humidity 47%
Pressure 1023 hPa
Visibility 10 km or more

METAR: UTAA 181600Z 19004KT 120V230 9999 NSC 14/03 Q1023 R88/70D NOSIG

Time: 22:07 (17:07 UTC)

Forecast

The report was made 6 hours and 22 minutes ago, at 10:45 UTC
Forecast valid from 18 at 12 UTC to 19 at 12 UTC
Wind 12 kt from the North/Northeast
Visibility: 6000 m
Scattered clouds at a height of 5000 ft
Temporary
from 18 at 17 UTC to 19 at 02 UTC
Wind 2 kt from variable directions
Becoming
from 19 at 02 UTC to 19 at 04 UTC
Wind 16 kt from the East

TAF: UTAA 181045Z 1812/1912 02012KT 6000 SCT050 530009 TEMPO 1817/1902 VRB02KT BECMG 1902/1904 10016KT

Weather observations and forecasts of more than 4000 airports (METAR and TAF reports).

The available stations are represented by yellow and red dots on the map.

Hover mouse over dot to see the name of the station.

Then click to see weather observations and forecasts.

To change the map : click on the green buttons with a black cross to zoom in, on the green button with a dash to zoom out, or on the green arrows for adjacent maps.


METAR-TAF: